Time;durP1;ratioP1;P1;durP2;ratioP2;P2;SDS_P1;SDS_P2;PMS_P1;PMS_P2;Temp;Humidity;BMP_temperature;BMP_pressure;BME280_temperature;BME280_humidity;BME280_pressure;Samples;Min_cycle;Max_cycle;Signal;HPM_P1;HPM_P2
2021/04/13 00:00:30;;;;;;;5.82;4.70;;;7.40;99.90;;;;;;5045718;28;20195;-73
2021/04/13 00:03:00;;;;;;;5.95;5.25;;;7.40;99.90;;;;;;5049885;28;20797;-73
2021/04/13 00:05:32;;;;;;;5.28;4.85;;;7.40;99.90;;;;;;5043556;28;20203;-73
2021/04/13 00:08:01;;;;;;;5.63;5.10;;;7.40;99.90;;;;;;5039324;28;20249;-73
2021/04/13 00:10:33;;;;;;;5.47;4.93;;;7.30;99.90;;;;;;5039991;28;20199;-72
2021/04/13 00:13:01;;;;;;;5.80;5.20;;;7.30;99.90;;;;;;5041629;28;20639;-73
2021/04/13 00:15:29;;;;;;;5.22;4.80;;;7.30;99.90;;;;;;5033658;28;20679;-73
2021/04/13 00:17:58;;;;;;;6.25;5.65;;;7.30;99.90;;;;;;5032116;28;20453;-72
2021/04/13 00:20:33;;;;;;;5.90;5.40;;;7.30;99.90;;;;;;5038329;28;20215;-73
2021/04/13 00:22:59;;;;;;;5.13;4.65;;;7.20;99.90;;;;;;5036518;28;20269;-73
2021/04/13 00:25:30;;;;;;;6.47;5.00;;;7.20;99.90;;;;;;5047392;28;20271;-72
2021/04/13 00:27:57;;;;;;;6.35;5.22;;;7.20;99.90;;;;;;5047422;28;20228;-73
2021/04/13 00:30:28;;;;;;;5.28;4.50;;;7.20;99.90;;;;;;5033182;28;20202;-73
2021/04/13 00:32:59;;;;;;;6.53;5.93;;;7.20;99.90;;;;;;5046786;28;20613;-73
2021/04/13 00:35:31;;;;;;;6.10;5.45;;;7.20;99.90;;;;;;5034474;28;20195;-73
2021/04/13 00:38:19;;;;;;;6.97;5.53;;;7.20;99.90;;;;;;5040736;28;20649;-73
2021/04/13 00:40:47;;;;;;;6.57;5.95;;;7.10;99.90;;;;;;5033111;28;20218;-73
2021/04/13 00:43:17;;;;;;;6.80;6.07;;;7.20;99.90;;;;;;5035234;28;20226;-73
2021/04/13 00:45:48;;;;;;;6.35;5.43;;;7.20;99.90;;;;;;5032648;28;20196;-73
2021/04/13 00:48:20;;;;;;;6.38;5.63;;;7.20;99.90;;;;;;5032480;28;20222;-73
2021/04/13 00:50:50;;;;;;;5.78;4.93;;;7.10;99.90;;;;;;5045018;28;20203;-73
2021/04/13 00:53:23;;;;;;;7.18;6.15;;;7.10;99.90;;;;;;5047391;28;20274;-73
2021/04/13 00:55:53;;;;;;;5.97;5.15;;;7.10;99.90;;;;;;5040306;28;20210;-73
2021/04/13 00:58:26;;;;;;;8.00;7.20;;;7.10;99.90;;;;;;5044275;28;20536;-73
2021/04/13 01:01:00;;;;;;;6.90;5.25;;;7.10;99.90;;;;;;5031855;28;20211;-72
2021/04/13 01:03:29;;;;;;;8.43;6.72;;;7.10;99.90;;;;;;5045771;28;20273;-72
2021/04/13 01:05:58;;;;;;;7.30;6.40;;;7.10;99.90;;;;;;5049937;28;20302;-72
2021/04/13 01:08:31;;;;;;;6.78;5.72;;;7.10;99.90;;;;;;5034610;28;20207;-72
2021/04/13 01:11:02;;;;;;;7.38;6.60;;;7.10;99.90;;;;;;5031966;28;20206;-72
2021/04/13 01:13:41;;;;;;;7.68;6.68;;;7.10;99.90;;;;;;5048937;28;20248;-72
2021/04/13 01:16:08;;;;;;;7.70;6.10;;;7.00;99.90;;;;;;5049802;28;20249;-72
2021/04/13 01:18:38;;;;;;;5.30;4.90;;;7.00;99.90;;;;;;5043984;28;20230;-74
2021/04/13 01:21:13;;;;;;;6.30;5.65;;;6.90;99.90;;;;;;5048460;28;20583;-72
2021/04/13 01:23:46;;;;;;;6.78;6.05;;;7.00;99.90;;;;;;5050982;28;20217;-72
2021/04/13 01:26:13;;;;;;;6.40;5.57;;;7.00;99.90;;;;;;5045157;28;20204;-74
2021/04/13 01:28:42;;;;;;;7.22;6.40;;;7.00;99.90;;;;;;5035261;28;20540;-73
2021/04/13 01:31:15;;;;;;;7.13;6.53;;;7.00;99.90;;;;;;5031439;28;20210;-73
2021/04/13 01:33:46;;;;;;;6.40;5.80;;;7.00;99.90;;;;;;5050297;28;20261;-72
2021/04/13 01:36:20;;;;;;;7.38;5.93;;;7.10;99.90;;;;;;5040166;28;20777;-72
2021/04/13 01:39:01;;;;;;;7.20;6.50;;;7.00;99.90;;;;;;5042870;28;20214;-74
2021/04/13 01:41:44;;;;;;;6.85;6.15;;;7.00;99.90;;;;;;5041936;28;20194;-73
2021/04/13 01:44:14;;;;;;;8.05;7.18;;;7.00;99.90;;;;;;5049021;28;20615;-73
2021/04/13 01:46:42;;;;;;;7.28;6.43;;;7.00;99.90;;;;;;5034720;28;20196;-73
2021/04/13 01:49:08;;;;;;;7.10;6.40;;;7.00;99.90;;;;;;5045552;28;20206;-73
2021/04/13 01:51:35;;;;;;;6.90;6.18;;;7.00;99.90;;;;;;5045010;28;20202;-73
2021/04/13 01:54:04;;;;;;;9.90;6.85;;;7.00;99.90;;;;;;5035285;28;20644;-73
2021/04/13 01:56:41;;;;;;;8.00;7.22;;;6.90;99.90;;;;;;5040487;28;20198;-74
2021/04/13 01:59:15;;;;;;;7.53;6.72;;;6.90;99.90;;;;;;5030373;28;20213;-73
2021/04/13 02:01:45;;;;;;;7.82;7.00;;;6.80;99.90;;;;;;5043260;28;20198;-72
2021/04/13 02:04:17;;;;;;;7.75;6.97;;;6.80;99.90;;;;;;5050140;28;20226;-73
2021/04/13 02:06:50;;;;;;;9.02;6.68;;;6.90;99.90;;;;;;5044444;28;20201;-72
2021/04/13 02:09:27;;;;;;;9.52;6.60;;;6.80;99.90;;;;;;5030737;28;20254;-72
2021/04/13 02:11:56;;;;;;;6.68;5.95;;;6.80;99.90;;;;;;5032030;28;20210;-72
2021/04/13 02:14:28;;;;;;;7.85;6.60;;;6.80;99.90;;;;;;5035065;28;20520;-72
2021/04/13 02:17:02;;;;;;;7.43;6.50;;;6.80;99.90;;;;;;5030314;28;20441;-73
2021/04/13 02:19:29;;;;;;;6.50;5.90;;;6.80;99.90;;;;;;5044332;28;20221;-73
2021/04/13 02:21:58;;;;;;;8.07;6.75;;;6.80;99.90;;;;;;5039639;28;20264;-72
2021/04/13 02:24:29;;;;;;;8.23;6.22;;;6.80;99.90;;;;;;5041665;28;20352;-72
2021/04/13 02:26:59;;;;;;;6.85;6.15;;;6.80;99.90;;;;;;5035432;28;20234;-73
2021/04/13 02:29:33;;;;;;;7.53;6.28;;;6.80;99.90;;;;;;5030547;28;20655;-73
2021/04/13 02:32:04;;;;;;;7.78;6.63;;;6.80;99.90;;;;;;5036820;28;20198;-72
2021/04/13 02:34:37;;;;;;;6.40;5.78;;;6.70;99.90;;;;;;5053937;28;20722;-73
2021/04/13 02:37:11;;;;;;;6.35;5.75;;;6.70;99.90;;;;;;5048451;28;20206;-71
2021/04/13 02:39:40;;;;;;;7.57;5.93;;;6.70;99.90;;;;;;5042821;28;20282;-74
2021/04/13 02:42:13;;;;;;;8.13;6.43;;;6.70;99.90;;;;;;5043270;28;20286;-73
2021/04/13 02:44:41;;;;;;;7.20;6.35;;;6.70;99.90;;;;;;5038962;28;20225;-72
2021/04/13 02:47:13;;;;;;;9.15;6.82;;;6.70;99.90;;;;;;5046811;28;20203;-73
2021/04/13 02:49:42;;;;;;;8.90;6.70;;;6.70;99.90;;;;;;5034623;28;20235;-73
2021/04/13 02:52:13;;;;;;;9.15;7.07;;;6.70;99.90;;;;;;5033547;28;20210;-72
2021/04/13 02:54:42;;;;;;;8.18;6.60;;;6.70;99.90;;;;;;5037514;28;20190;-74
2021/04/13 02:57:14;;;;;;;7.47;6.47;;;6.70;99.90;;;;;;5051595;28;20223;-73
2021/04/13 02:59:41;;;;;;;8.90;6.97;;;6.70;99.90;;;;;;5034796;28;20183;-72
2021/04/13 03:02:10;;;;;;;7.07;6.03;;;6.60;99.90;;;;;;5034990;28;20208;-72
2021/04/13 03:04:39;;;;;;;8.85;6.88;;;6.60;99.90;;;;;;5033913;28;20553;-73
2021/04/13 03:07:06;;;;;;;7.65;6.35;;;6.60;99.90;;;;;;5049670;28;20261;-72
2021/04/13 03:09:36;;;;;;;8.32;7.63;;;6.60;99.90;;;;;;5054438;28;20202;-74
2021/04/13 03:12:06;;;;;;;7.85;5.97;;;6.60;99.90;;;;;;5041993;28;20218;-74
2021/04/13 03:14:36;;;;;;;10.77;6.57;;;6.60;99.90;;;;;;5034410;28;20188;-74
2021/04/13 03:17:08;;;;;;;7.88;6.72;;;6.60;99.90;;;;;;5035834;28;20235;-74
2021/04/13 03:19:35;;;;;;;8.40;7.60;;;6.60;99.90;;;;;;5041372;28;20211;-74
2021/04/13 03:22:04;;;;;;;8.20;6.82;;;6.50;99.90;;;;;;5036051;28;20200;-74
2021/04/13 03:24:46;;;;;;;8.10;7.03;;;6.50;99.90;;;;;;5049453;28;20216;-74
2021/04/13 03:27:15;;;;;;;8.95;7.25;;;6.60;99.90;;;;;;5047922;28;20241;-74
2021/04/13 03:29:47;;;;;;;7.72;6.32;;;6.60;99.90;;;;;;5035023;28;20616;-74
2021/04/13 03:32:15;;;;;;;13.27;8.52;;;6.60;99.90;;;;;;5033778;28;20191;-73
2021/04/13 03:34:43;;;;;;;8.65;7.75;;;6.60;99.90;;;;;;5040688;28;20536;-74
2021/04/13 03:37:11;;;;;;;7.35;6.65;;;6.50;99.90;;;;;;5050870;28;20199;-73
2021/04/13 03:39:40;;;;;;;9.05;7.97;;;6.60;99.90;;;;;;5052095;28;20205;-74
2021/04/13 03:42:14;;;;;;;7.60;6.65;;;6.60;99.90;;;;;;5051765;28;20198;-74
2021/04/13 03:44:41;;;;;;;7.80;5.95;;;6.60;99.90;;;;;;5037312;28;20226;-74
2021/04/13 03:47:11;;;;;;;8.60;7.68;;;6.50;99.90;;;;;;5033024;28;20207;-74
2021/04/13 03:49:40;;;;;;;9.70;7.50;;;6.50;99.90;;;;;;5046047;28;20195;-74
2021/04/13 03:52:23;;;;;;;7.50;6.50;;;6.50;99.90;;;;;;5032330;28;20801;-74
2021/04/13 03:54:50;;;;;;;8.27;6.90;;;6.50;99.90;;;;;;5033251;28;20304;-74
2021/04/13 03:57:30;;;;;;;8.25;6.35;;;6.50;99.90;;;;;;5033403;28;20249;-73
2021/04/13 03:59:57;;;;;;;8.60;7.75;;;6.50;99.90;;;;;;5038384;28;20214;-73
2021/04/13 04:02:24;;;;;;;7.57;6.82;;;6.50;99.90;;;;;;5033123;28;20203;-74
2021/04/13 04:05:05;;;;;;;8.90;6.90;;;6.50;99.90;;;;;;5035018;28;20226;-74
2021/04/13 04:07:36;;;;;;;12.07;7.35;;;6.50;99.90;;;;;;5043274;28;20219;-74
2021/04/13 04:10:27;;;;;;;9.10;7.70;;;6.50;99.90;;;;;;5049342;28;20199;-74
2021/04/13 04:12:58;;;;;;;7.22;6.32;;;6.50;99.90;;;;;;5042129;28;20634;-74
2021/04/13 04:15:29;;;;;;;8.20;6.65;;;6.50;99.90;;;;;;5036830;28;20214;-74
2021/04/13 04:17:55;;;;;;;10.00;8.10;;;6.50;99.90;;;;;;5033484;28;20257;-74
2021/04/13 04:20:34;;;;;;;12.38;8.45;;;6.50;99.90;;;;;;5045973;28;20619;-74
2021/04/13 04:23:01;;;;;;;10.05;7.30;;;6.40;99.90;;;;;;5038816;28;20244;-74
2021/04/13 04:25:34;;;;;;;8.50;6.93;;;6.40;99.90;;;;;;5046107;28;20191;-73
2021/04/13 04:28:06;;;;;;;10.70;8.00;;;6.30;99.90;;;;;;5039220;28;20229;-73
2021/04/13 04:30:34;;;;;;;9.43;7.38;;;6.30;99.90;;;;;;5043182;28;20334;-73
2021/04/13 04:33:02;;;;;;;8.18;7.40;;;6.30;99.90;;;;;;5051825;28;20249;-73
2021/04/13 04:35:42;;;;;;;7.28;6.55;;;6.30;99.90;;;;;;5048304;28;20265;-74
2021/04/13 04:38:23;;;;;;;9.27;8.25;;;6.30;99.90;;;;;;5048750;28;20206;-74
2021/04/13 04:40:55;;;;;;;7.75;6.60;;;6.30;99.90;;;;;;5047324;28;20202;-74
2021/04/13 04:43:55;;;;;;;8.25;7.35;;;6.40;99.90;;;;;;5052976;28;20218;-73
2021/04/13 04:46:39;;;;;;;11.18;6.22;;;6.30;99.90;;;;;;5049150;28;20199;-73
2021/04/13 04:49:08;;;;;;;6.90;6.30;;;6.30;99.90;;;;;;5032091;28;20718;-73
2021/04/13 04:51:36;;;;;;;8.23;6.47;;;6.40;99.90;;;;;;5038949;28;20196;-74
2021/04/13 04:54:03;;;;;;;8.07;7.25;;;6.40;99.90;;;;;;5039872;28;20199;-73
2021/04/13 04:56:29;;;;;;;12.30;6.43;;;6.40;99.90;;;;;;5048707;28;20195;-73
2021/04/13 04:58:56;;;;;;;8.07;6.18;;;6.40;99.90;;;;;;5045691;28;20195;-73
2021/04/13 05:01:22;;;;;;;7.90;6.70;;;6.30;99.90;;;;;;5032682;28;20231;-73
2021/04/13 05:03:48;;;;;;;7.80;6.90;;;6.40;99.90;;;;;;5031890;28;20883;-73
2021/04/13 05:06:15;;;;;;;8.40;7.30;;;6.30;99.90;;;;;;5050110;28;20198;-72
2021/04/13 05:08:42;;;;;;;10.98;6.97;;;6.40;99.90;;;;;;5050416;28;20242;-72
2021/04/13 05:11:08;;;;;;;8.75;7.20;;;6.40;99.90;;;;;;5051190;28;20199;-72
2021/04/13 05:13:34;;;;;;;7.85;6.82;;;6.30;99.90;;;;;;5051630;28;20579;-72
2021/04/13 05:16:00;;;;;;;10.82;7.28;;;6.30;99.90;;;;;;5037622;28;20203;-72
2021/04/13 05:18:27;;;;;;;7.75;6.88;;;6.30;99.90;;;;;;5039999;28;20202;-72
2021/04/13 05:20:54;;;;;;;6.95;6.30;;;6.30;99.90;;;;;;5033998;28;20206;-72
2021/04/13 05:23:22;;;;;;;8.52;6.55;;;6.30;99.90;;;;;;5047152;28;20284;-72
2021/04/13 05:25:49;;;;;;;15.68;7.80;;;6.30;99.90;;;;;;5050811;28;20202;-72
2021/04/13 05:28:16;;;;;;;8.55;6.82;;;6.20;99.90;;;;;;5040751;28;20226;-72
2021/04/13 05:30:42;;;;;;;7.97;7.03;;;6.20;99.90;;;;;;5039600;28;20632;-72
2021/04/13 05:33:09;;;;;;;11.05;6.47;;;6.30;99.90;;;;;;5040287;28;20551;-72
2021/04/13 05:35:35;;;;;;;11.75;7.65;;;6.30;99.90;;;;;;5051495;28;20555;-72
2021/04/13 05:38:05;;;;;;;9.07;7.38;;;6.30;99.90;;;;;;5045435;28;20196;-72
2021/04/13 05:40:34;;;;;;;7.28;6.57;;;6.30;99.90;;;;;;5032383;28;20204;-72
2021/04/13 05:43:01;;;;;;;7.72;6.30;;;6.30;99.90;;;;;;5031367;28;20199;-72
2021/04/13 05:45:30;;;;;;;7.00;6.28;;;6.30;99.90;;;;;;5031229;28;20199;-73
2021/04/13 05:47:57;;;;;;;7.15;6.45;;;6.40;99.90;;;;;;5048108;28;20211;-73
2021/04/13 05:50:28;;;;;;;7.97;6.80;;;6.40;99.90;;;;;;5046365;28;20575;-72
2021/04/13 05:52:54;;;;;;;7.57;6.78;;;6.50;99.90;;;;;;5033386;28;20200;-73
2021/04/13 05:55:20;;;;;;;11.07;7.85;;;6.50;99.90;;;;;;5033262;28;20252;-73
2021/04/13 05:57:50;;;;;;;8.10;6.47;;;6.60;99.90;;;;;;5030799;28;20678;-73
2021/04/13 06:00:19;;;;;;;9.18;6.75;;;6.80;99.90;;;;;;5037143;28;20209;-73
2021/04/13 06:02:45;;;;;;;9.05;5.95;;;6.90;99.90;;;;;;5041912;28;20215;-73
2021/04/13 06:05:14;;;;;;;5.93;5.32;;;7.20;99.90;;;;;;5030720;28;20210;-74
2021/04/13 06:07:41;;;;;;;6.03;5.43;;;7.40;99.90;;;;;;5037090;28;20746;-74
2021/04/13 06:10:08;;;;;;;7.40;5.43;;;7.60;99.90;;;;;;5050548;28;20551;-73
2021/04/13 06:12:35;;;;;;;7.53;5.63;;;7.80;99.90;;;;;;5031475;28;20203;-73
2021/04/13 06:15:02;;;;;;;8.80;5.07;;;7.90;99.90;;;;;;5035259;28;20677;-73
2021/04/13 06:17:29;;;;;;;7.85;6.88;;;8.10;99.90;;;;;;5046823;28;20210;-73
2021/04/13 06:19:55;;;;;;;6.55;5.70;;;8.10;99.90;;;;;;5030976;28;20226;-73
2021/04/13 06:22:21;;;;;;;6.97;6.15;;;8.20;99.90;;;;;;5034781;28;20202;-73
2021/04/13 06:24:47;;;;;;;6.93;5.50;;;8.30;99.90;;;;;;5033720;28;20219;-73
2021/04/13 06:27:14;;;;;;;8.23;6.07;;;8.30;99.90;;;;;;5042749;28;20230;-73
2021/04/13 06:29:40;;;;;;;7.47;5.97;;;8.40;99.90;;;;;;5045818;28;20194;-73
2021/04/13 06:32:07;;;;;;;6.50;5.72;;;8.40;99.90;;;;;;5033951;28;20638;-73
2021/04/13 06:34:34;;;;;;;5.68;5.15;;;8.50;99.90;;;;;;5030608;28;20214;-73
2021/04/13 06:37:02;;;;;;;6.40;5.80;;;8.40;99.90;;;;;;5032822;28;20253;-73
2021/04/13 06:39:29;;;;;;;10.18;7.03;;;8.30;99.90;;;;;;5048664;28;20194;-73
2021/04/13 06:42:05;;;;;;;6.22;5.70;;;8.20;99.90;;;;;;5049894;28;20202;-72
2021/04/13 06:45:19;;;;;;;6.55;5.85;;;8.10;99.90;;;;;;5038444;28;20219;-73
2021/04/13 06:48:17;;;;;;;7.75;6.13;;;7.90;99.90;;;;;;5029727;28;20612;-72
2021/04/13 06:50:53;;;;;;;6.03;4.75;;;7.70;99.90;;;;;;5046034;28;20214;-73
2021/04/13 06:53:32;;;;;;;7.13;5.45;;;7.60;99.90;;;;;;5047037;28;20205;-73
2021/04/13 06:56:22;;;;;;;7.15;5.50;;;7.60;99.90;;;;;;5037562;28;20739;-73
2021/04/13 06:59:24;;;;;;;7.55;5.40;;;7.50;99.90;;;;;;5049945;28;20203;-72
2021/04/13 07:01:54;;;;;;;5.47;4.47;;;7.50;99.90;;;;;;5017131;28;20233;-73
2021/04/13 07:04:26;;;;;;;6.50;4.40;;;7.60;99.90;;;;;;5031191;28;20234;-73
2021/04/13 07:07:04;;;;;;;5.05;4.30;;;7.70;99.90;;;;;;5042224;28;20194;-74
2021/04/13 07:09:35;;;;;;;4.47;3.97;;;7.80;99.90;;;;;;5049732;28;20202;-73
2021/04/13 07:12:07;;;;;;;5.45;3.90;;;7.80;99.90;;;;;;5047109;28;20199;-73
2021/04/13 07:14:37;;;;;;;6.13;3.58;;;7.80;99.90;;;;;;5050931;28;20180;-73
2021/04/13 07:17:07;;;;;;;3.78;3.38;;;7.80;99.90;;;;;;5035182;28;20565;-74
2021/04/13 07:19:40;;;;;;;5.65;4.78;;;7.80;99.90;;;;;;5035450;28;20196;-74
2021/04/13 07:22:15;;;;;;;5.03;3.38;;;7.70;99.90;;;;;;5039409;28;20277;-73
2021/04/13 07:24:49;;;;;;;5.10;4.57;;;7.70;99.90;;;;;;5036711;28;20672;-73
2021/04/13 07:27:21;;;;;;;3.97;2.92;;;7.80;99.90;;;;;;5038885;28;20233;-74
2021/04/13 07:29:50;;;;;;;5.65;4.20;;;7.90;99.90;;;;;;5039771;28;20207;-74
2021/04/13 07:32:18;;;;;;;3.47;3.15;;;8.00;99.90;;;;;;5040315;28;20286;-73
2021/04/13 07:34:46;;;;;;;3.95;3.38;;;8.00;99.90;;;;;;5040093;28;20195;-71
2021/04/13 07:37:21;;;;;;;3.83;3.40;;;8.10;99.90;;;;;;5038757;28;20199;-72
2021/04/13 07:39:50;;;;;;;4.25;3.28;;;8.10;99.90;;;;;;5043683;28;20208;-71
2021/04/13 07:42:22;;;;;;;4.82;4.28;;;8.20;99.90;;;;;;5041196;28;20198;-71
2021/04/13 07:45:18;;;;;;;3.90;3.22;;;8.30;99.90;;;;;;5043724;28;20215;-71
2021/04/13 07:48:17;;;;;;;3.67;3.38;;;8.30;99.90;;;;;;5040646;28;20764;-71
2021/04/13 07:51:06;;;;;;;3.85;2.60;;;8.40;99.90;;;;;;5036700;28;20230;-71
2021/04/13 07:53:48;;;;;;;3.15;2.60;;;8.50;99.90;;;;;;5039743;28;20194;-71
2021/04/13 07:56:25;;;;;;;4.15;3.03;;;8.60;99.90;;;;;;5034513;28;20215;-72
2021/04/13 07:58:58;;;;;;;4.82;3.10;;;8.80;99.90;;;;;;5039490;28;20202;-71
2021/04/13 08:01:25;;;;;;;3.95;2.65;;;8.80;99.90;;;;;;5037194;28;20244;-71
2021/04/13 08:03:51;;;;;;;6.05;3.10;;;8.70;99.90;;;;;;5037670;28;20559;-71
2021/04/13 08:06:47;;;;;;;4.00;2.90;;;8.70;99.90;;;;;;5040723;28;20199;-72
2021/04/13 08:09:39;;;;;;;3.78;2.55;;;8.80;99.90;;;;;;5039930;28;20271;-73
2021/04/13 08:12:24;;;;;;;2.33;1.95;;;8.90;99.90;;;;;;5046508;28;20253;-73
2021/04/13 08:15:10;;;;;;;2.60;2.08;;;8.70;99.90;;;;;;5046938;28;20245;-72
2021/04/13 08:17:55;;;;;;;2.90;2.20;;;8.60;99.90;;;;;;5041429;28;20202;-77
2021/04/13 08:20:27;;;;;;;2.80;1.85;;;8.60;99.90;;;;;;5051844;28;20198;-77
2021/04/13 08:22:55;;;;;;;2.10;1.88;;;8.50;99.90;;;;;;5050906;28;20202;-74
2021/04/13 08:25:48;;;;;;;3.30;1.65;;;8.60;99.90;;;;;;5048350;28;20230;-74
2021/04/13 08:28:24;;;;;;;2.60;2.15;;;8.80;99.90;;;;;;5034151;28;20239;-74
2021/04/13 08:33:47;;;;;;;3.50;1.80;;;9.30;99.90;;;;;;5046535;28;20270;-74
2021/04/13 08:36:22;;;;;;;2.38;1.70;;;9.40;99.90;;;;;;5050986;28;20203;-74
2021/04/13 08:38:59;;;;;;;5.38;3.20;;;9.50;99.90;;;;;;5032541;28;20186;-74
2021/04/13 08:41:40;;;;;;;9.52;2.75;;;9.60;99.90;;;;;;5032511;28;20183;-73
2021/04/13 08:44:33;;;;;;;3.28;2.15;;;9.40;99.90;;;;;;5042360;28;20559;-73
2021/04/13 08:47:03;;;;;;;3.63;1.85;;;9.30;99.90;;;;;;5050888;28;20253;-73
2021/04/13 08:49:50;;;;;;;6.28;2.15;;;9.40;99.90;;;;;;5041623;28;20199;-73
2021/04/13 08:52:33;;;;;;;2.63;2.30;;;9.50;99.90;;;;;;5033039;28;20544;-73
2021/04/13 08:55:06;;;;;;;2.95;1.88;;;9.60;99.90;;;;;;5033659;28;20207;-73
2021/04/13 08:57:36;;;;;;;3.90;2.42;;;9.40;99.90;;;;;;5032286;28;20176;-73
2021/04/13 09:00:31;;;;;;;4.20;1.90;;;9.30;99.90;;;;;;5044673;28;20785;-73
2021/04/13 09:02:59;;;;;;;2.95;2.00;;;9.20;99.90;;;;;;5042681;28;20195;-73
2021/04/13 09:05:28;;;;;;;8.23;2.05;;;9.40;99.90;;;;;;5046524;28;20284;-73
2021/04/13 09:08:00;;;;;;;3.50;1.42;;;9.60;99.90;;;;;;5033241;28;20214;-73
2021/04/13 09:10:34;;;;;;;2.88;1.52;;;9.60;99.90;;;;;;5052271;28;20187;-73
2021/04/13 09:13:12;;;;;;;5.68;1.70;;;9.50;99.90;;;;;;5050987;28;20194;-73
2021/04/13 09:15:52;;;;;;;2.20;1.67;;;9.40;99.90;;;;;;5050140;28;20198;-73
2021/04/13 09:18:26;;;;;;;1.83;1.25;;;9.20;99.90;;;;;;5041802;28;20191;-73
2021/04/13 09:21:03;;;;;;;7.72;2.45;;;9.20;99.90;;;;;;5052164;28;20210;-73
2021/04/13 09:23:34;;;;;;;6.55;1.85;;;9.00;99.90;;;;;;5050691;28;20217;-73
2021/04/13 09:26:16;;;;;;;4.70;1.80;;;8.90;99.90;;;;;;5042067;28;20531;-73
2021/04/13 09:28:48;;;;;;;1.85;1.20;;;9.00;99.90;;;;;;5043359;28;20191;-73
2021/04/13 09:31:19;;;;;;;3.50;1.65;;;9.20;99.90;;;;;;5051156;28;20213;-73
2021/04/13 09:33:45;;;;;;;2.95;2.15;;;9.30;99.90;;;;;;5051014;28;20187;-73
2021/04/13 09:36:31;;;;;;;5.32;1.35;;;9.40;99.90;;;;;;5048434;28;20626;-73
2021/04/13 09:39:34;;;;;;;4.18;1.70;;;9.40;99.90;;;;;;5039496;28;20198;-74
2021/04/13 09:42:14;;;;;;;3.05;1.48;;;9.40;99.90;;;;;;5037198;28;20222;-72
2021/04/13 09:44:55;;;;;;;3.50;1.60;;;9.50;99.90;;;;;;5032694;28;20207;-74
2021/04/13 09:47:37;;;;;;;3.97;1.30;;;9.60;99.90;;;;;;5041417;28;20206;-74
2021/04/13 09:50:15;;;;;;;2.90;1.80;;;9.60;99.90;;;;;;5051231;28;20202;-75
2021/04/13 09:53:03;;;;;;;3.20;1.05;;;9.60;99.90;;;;;;5041712;28;20202;-74
2021/04/13 09:55:44;;;;;;;4.30;1.70;;;9.70;99.90;;;;;;5036400;28;20199;-73
2021/04/13 09:58:54;;;;;;;2.75;1.35;;;9.70;99.90;;;;;;5036798;28;20199;-71
2021/04/13 10:01:40;;;;;;;3.83;1.30;;;9.70;99.90;;;;;;5018699;28;20198;-71
2021/04/13 10:04:23;;;;;;;4.13;1.17;;;9.70;99.90;;;;;;5039499;28;20214;-72
2021/04/13 10:07:04;;;;;;;3.47;1.58;;;9.70;99.90;;;;;;5035272;28;20198;-72
2021/04/13 10:09:39;;;;;;;2.13;1.10;;;9.60;99.90;;;;;;5043298;28;20289;-71
2021/04/13 10:12:29;;;;;;;2.17;1.00;;;9.50;99.90;;;;;;5035698;28;20560;-70
2021/04/13 10:15:20;;;;;;;1.52;1.20;;;9.60;99.90;;;;;;5034359;28;20579;-72
2021/04/13 10:18:03;;;;;;;1.48;1.00;;;9.60;99.90;;;;;;5049614;28;20635;-71
2021/04/13 10:20:37;;;;;;;4.40;1.25;;;9.60;99.90;;;;;;5050462;28;20527;-70
2021/04/13 10:23:27;;;;;;;3.05;1.20;;;9.70;99.90;;;;;;5051076;28;20230;-69
2021/04/13 10:26:27;;;;;;;2.47;1.10;;;9.70;99.90;;;;;;5049782;28;20198;-69
2021/04/13 10:29:24;;;;;;;2.85;2.50;;;9.70;99.90;;;;;;5031640;28;20198;-71
2021/04/13 10:32:23;;;;;;;2.50;1.70;;;9.70;99.90;;;;;;5039463;28;20749;-72
2021/04/13 10:35:13;;;;;;;2.67;1.52;;;9.60;99.90;;;;;;5040403;28;20235;-70
2021/04/13 10:38:08;;;;;;;1.92;1.00;;;9.60;99.90;;;;;;5031237;28;20199;-71
2021/04/13 10:41:04;;;;;;;3.80;1.10;;;9.60;99.90;;;;;;5030780;28;20200;-71
2021/04/13 10:44:03;;;;;;;1.55;0.82;;;9.50;99.90;;;;;;4999543;28;20206;-70
2021/04/13 10:46:33;;;;;;;2.60;0.90;;;9.60;99.90;;;;;;5049104;28;20753;-72
2021/04/13 10:49:20;;;;;;;3.20;1.13;;;9.60;99.90;;;;;;5037648;28;20617;-71
2021/04/13 10:52:25;;;;;;;4.13;1.23;;;9.60;99.90;;;;;;5030673;28;20184;-71
2021/04/13 10:55:15;;;;;;;4.07;1.30;;;9.60;99.90;;;;;;5047463;28;20203;-72
2021/04/13 10:58:07;;;;;;;3.65;1.20;;;9.60;99.90;;;;;;5040633;28;20247;-71
2021/04/13 11:00:40;;;;;;;2.00;1.25;;;9.60;99.90;;;;;;5033997;28;20211;-71
2021/04/13 11:03:40;;;;;;;2.10;0.95;;;9.70;99.90;;;;;;5036301;28;20195;-71
2021/04/13 11:06:52;;;;;;;7.53;1.88;;;9.70;99.90;;;;;;5054079;28;20202;-71
2021/04/13 11:09:38;;;;;;;2.95;1.05;;;9.70;99.90;;;;;;5047964;28;20635;-70
2021/04/13 11:12:41;;;;;;;1.50;1.05;;;9.70;99.90;;;;;;5052963;28;20199;-70
2021/04/13 11:15:44;;;;;;;6.78;1.10;;;9.80;99.90;;;;;;5050566;28;20194;-72
2021/04/13 11:18:55;;;;;;;4.03;1.30;;;9.70;99.90;;;;;;5048193;28;20195;-71
2021/04/13 11:21:50;;;;;;;3.20;1.27;;;9.70;99.90;;;;;;5054345;28;20830;-72
2021/04/13 11:24:37;;;;;;;4.10;1.20;;;9.60;99.90;;;;;;5036770;28;20227;-72
2021/04/13 11:27:36;;;;;;;3.30;1.58;;;9.60;99.90;;;;;;5046168;28;20587;-72
2021/04/13 11:30:40;;;;;;;2.15;1.00;;;9.60;99.90;;;;;;5035899;28;20636;-72
2021/04/13 11:33:34;;;;;;;3.50;0.90;;;9.70;99.90;;;;;;5045729;28;20195;-70
2021/04/13 11:36:09;;;;;;;5.82;0.98;;;9.70;99.90;;;;;;5053543;28;20198;-72
2021/04/13 11:38:51;;;;;;;4.15;1.30;;;9.60;99.90;;;;;;5041956;28;20206;-73
2021/04/13 11:41:41;;;;;;;2.08;0.80;;;9.60;99.90;;;;;;5051872;28;20186;-73
2021/04/13 11:44:11;;;;;;;1.52;1.10;;;9.50;99.90;;;;;;5045407;28;20543;-71
2021/04/13 11:46:50;;;;;;;1.45;1.23;;;9.60;99.90;;;;;;5052478;28;20187;-72
2021/04/13 11:49:20;;;;;;;2.55;1.30;;;9.60;99.90;;;;;;5048169;28;20179;-73
2021/04/13 11:51:55;;;;;;;4.18;1.10;;;9.60;99.90;;;;;;5049730;28;20563;-72
2021/04/13 11:54:48;;;;;;;3.70;1.15;;;9.60;99.90;;;;;;5041987;28;20245;-72
2021/04/13 11:57:18;;;;;;;2.55;1.05;;;9.60;99.90;;;;;;5039627;28;20200;-72
2021/04/13 12:00:23;;;;;;;1.10;0.80;;;9.60;99.90;;;;;;5053272;28;20203;-71
2021/04/13 12:03:02;;;;;;;1.98;1.00;;;9.60;99.70;;;;;;5052246;28;20536;-71
2021/04/13 12:05:42;;;;;;;1.70;1.33;;;9.60;99.60;;;;;;5039928;28;20204;-71
2021/04/13 12:08:37;;;;;;;2.00;1.15;;;9.60;99.50;;;;;;5044132;28;20218;-72
2021/04/13 12:11:07;;;;;;;1.70;1.30;;;9.70;99.90;;;;;;5044135;28;20713;-73
2021/04/13 12:13:41;;;;;;;1.60;0.90;;;9.70;99.30;;;;;;5048706;28;20193;-73
2021/04/13 12:16:08;;;;;;;1.63;0.90;;;9.70;99.50;;;;;;5048940;28;20195;-71
2021/04/13 12:19:01;;;;;;;2.75;1.23;;;9.70;99.90;;;;;;5045122;28;20366;-72
2021/04/13 12:21:45;;;;;;;2.22;0.80;;;9.70;99.50;;;;;;5040709;28;20204;-71
2021/04/13 12:24:35;;;;;;;1.50;0.82;;;9.70;99.90;;;;;;5039822;28;20257;-72
2021/04/13 12:27:34;;;;;;;1.30;0.98;;;9.70;99.90;;;;;;5030356;28;20238;-72
2021/04/13 12:30:32;;;;;;;2.15;1.05;;;9.70;99.70;;;;;;5043398;28;20635;-71
2021/04/13 12:33:00;;;;;;;2.80;1.08;;;9.70;96.40;;;;;;5045271;28;20551;-72
2021/04/13 12:36:02;;;;;;;2.50;0.95;;;9.70;97.00;;;;;;5033098;28;20200;-71
2021/04/13 12:38:49;;;;;;;2.78;0.93;;;9.80;98.60;;;;;;4971546;28;20839;-71
2021/04/13 12:41:19;;;;;;;3.25;1.15;;;9.80;98.00;;;;;;4971629;28;20190;-73
2021/04/13 12:43:48;;;;;;;3.38;1.30;;;9.80;98.60;;;;;;5021188;28;20218;-73
2021/04/13 12:46:24;;;;;;;2.00;1.20;;;9.80;98.70;;;;;;5051633;28;20205;-72
2021/04/13 12:48:52;;;;;;;4.35;0.90;;;9.80;98.90;;;;;;5037380;28;20214;-71
2021/04/13 12:51:25;;;;;;;1.45;0.80;;;9.80;98.30;;;;;;5049603;28;20195;-71
2021/04/13 12:54:11;;;;;;;1.83;0.90;;;9.80;98.20;;;;;;5048769;28;20194;-70
2021/04/13 12:56:37;;;;;;;1.05;0.80;;;9.80;98.30;;;;;;5051551;28;20632;-72
2021/04/13 12:59:07;;;;;;;3.38;0.95;;;9.80;98.30;;;;;;5048234;28;20651;-71
2021/04/13 13:01:38;;;;;;;1.00;0.80;;;9.80;98.40;;;;;;5052438;28;20202;-72
2021/04/13 13:04:09;;;;;;;1.38;0.77;;;9.80;98.00;;;;;;5041518;28;20817;-71
2021/04/13 13:06:36;;;;;;;2.95;1.20;;;9.90;98.20;;;;;;5038650;28;20203;-71
2021/04/13 13:09:06;;;;;;;2.00;0.90;;;9.90;97.90;;;;;;5045964;28;20293;-72
2021/04/13 13:11:33;;;;;;;1.50;0.85;;;9.90;98.20;;;;;;5051984;28;20199;-71
2021/04/13 13:14:04;;;;;;;2.85;0.90;;;9.90;98.30;;;;;;5043730;28;20196;-71
2021/04/13 13:16:30;;;;;;;3.75;1.10;;;10.00;97.60;;;;;;5049845;28;20407;-70
2021/04/13 13:18:57;;;;;;;1.30;0.80;;;10.00;97.00;;;;;;5051606;28;20199;-71
2021/04/13 13:21:28;;;;;;;3.20;0.90;;;10.00;96.80;;;;;;5051401;28;20202;-72
2021/04/13 13:23:58;;;;;;;1.33;0.90;;;10.00;95.90;;;;;;5043160;28;20227;-71
2021/04/13 13:26:31;;;;;;;2.67;0.82;;;10.00;96.40;;;;;;5031806;28;20591;-73
2021/04/13 13:28:58;;;;;;;3.28;0.95;;;10.10;96.90;;;;;;5039364;28;20229;-73
2021/04/13 13:31:30;;;;;;;2.33;0.90;;;10.10;96.90;;;;;;5051399;28;20566;-72
2021/04/13 13:33:59;;;;;;;1.75;1.33;;;10.20;96.90;;;;;;5046021;28;20211;-71
2021/04/13 13:36:28;;;;;;;1.65;0.80;;;10.20;97.10;;;;;;5050413;28;20516;-72
2021/04/13 13:38:56;;;;;;;2.20;1.40;;;10.20;97.00;;;;;;5049321;28;20203;-72
2021/04/13 13:41:23;;;;;;;3.42;0.85;;;10.30;96.60;;;;;;5050349;28;20191;-72